Time,TemperatureF,DewpointF,PressureIn,WindDirection,WindDirectionDegrees,WindSpeedMPH,WindSpeedGustMPH,Humidity,HourlyPrecipIn,Conditions,Clouds,dailyrainin,SolarRadiationWatts/m^2,SoftwareType,DateUTC
2013-04-05 00:02:00,49.0,30.0,-100.00,SW,224,4.0,15.0,48,-99.99,,,-99.99,0.000000,,2013-04-05 06:02:00,
2013-04-05 00:12:00,49.0,30.0,-100.00,SW,224,4.0,15.0,48,-99.99,,,-99.99,0.000000,,2013-04-05 06:12:00,
2013-04-05 00:42:00,49.0,30.0,-100.00,West,271,4.0,12.0,47,-99.99,,,-99.99,0.000000,,2013-04-05 06:42:00,
2013-04-05 00:52:00,49.0,30.0,-100.00,West,271,4.0,12.0,47,-99.99,,,-99.99,0.000000,,2013-04-05 06:52:00,
2013-04-05 01:02:00,49.0,30.0,-100.00,West,271,4.0,12.0,47,-99.99,,,-99.99,0.000000,,2013-04-05 07:02:00,
2013-04-05 01:12:00,49.0,30.0,-100.00,West,271,4.0,12.0,47,-99.99,,,-99.99,0.000000,,2013-04-05 07:12:00,
2013-04-05 01:42:00,50.0,29.0,-100.00,WNW,288,11.0,27.0,44,-99.99,,,-99.99,0.000000,,2013-04-05 07:42:00,
2013-04-05 01:52:00,50.0,29.0,-100.00,WNW,288,11.0,27.0,44,-99.99,,,-99.99,0.000000,,2013-04-05 07:52:00,
2013-04-05 02:02:00,50.0,29.0,-100.00,WNW,288,11.0,27.0,44,-99.99,,,-99.99,0.000000,,2013-04-05 08:02:00,
2013-04-05 02:12:00,50.0,29.0,-100.00,WNW,288,11.0,27.0,44,-99.99,,,-99.99,0.000000,,2013-04-05 08:12:00,
2013-04-05 02:43:00,47.0,28.0,-100.00,West,281,4.0,16.0,48,-99.99,,,-99.99,0.000000,,2013-04-05 08:43:00,
2013-04-05 02:52:00,47.0,28.0,-100.00,West,281,4.0,16.0,48,-99.99,,,-99.99,0.000000,,2013-04-05 08:52:00,
2013-04-05 03:02:00,47.0,28.0,-100.00,West,281,4.0,16.0,48,-99.99,,,-99.99,0.000000,,2013-04-05 09:02:00,
2013-04-05 03:12:00,47.0,28.0,-100.00,West,281,4.0,16.0,48,-99.99,,,-99.99,0.000000,,2013-04-05 09:12:00,
2013-04-05 03:43:00,45.0,27.0,-100.00,NW,311,2.0,6.0,49,-99.99,,,-99.99,0.000000,,2013-04-05 09:43:00,
2013-04-05 03:53:00,45.0,27.0,-100.00,NW,311,2.0,6.0,49,-99.99,,,-99.99,0.000000,,2013-04-05 09:53:00,
2013-04-05 04:02:00,45.0,27.0,-100.00,NW,311,2.0,6.0,49,-99.99,,,-99.99,0.000000,,2013-04-05 10:02:00,
2013-04-05 04:12:00,45.0,27.0,-100.00,NW,311,2.0,6.0,49,-99.99,,,-99.99,0.000000,,2013-04-05 10:12:00,
2013-04-05 04:43:00,43.0,28.0,-100.00,West,268,4.0,6.0,55,-99.99,,,-99.99,0.000000,,2013-04-05 10:43:00,
2013-04-05 04:53:00,43.0,28.0,-100.00,West,268,4.0,6.0,55,-99.99,,,-99.99,0.000000,,2013-04-05 10:53:00,
2013-04-05 05:02:00,43.0,28.0,-100.00,West,268,4.0,6.0,55,-99.99,,,-99.99,0.000000,,2013-04-05 11:02:00,
2013-04-05 05:12:00,43.0,28.0,-100.00,West,268,4.0,6.0,55,-99.99,,,-99.99,0.000000,,2013-04-05 11:12:00,
2013-04-05 05:42:00,44.0,28.0,-100.00,West,274,4.0,7.0,54,-99.99,,,-99.99,0.000000,,2013-04-05 11:42:00,
2013-04-05 05:52:00,44.0,28.0,-100.00,West,274,4.0,7.0,54,-99.99,,,-99.99,0.000000,,2013-04-05 11:52:00,
2013-04-05 06:02:00,44.0,28.0,-100.00,West,274,4.0,7.0,54,-99.99,,,-99.99,0.000000,,2013-04-05 12:02:00,
2013-04-05 06:12:00,44.0,28.0,-100.00,West,274,4.0,7.0,54,-99.99,,,-99.99,0.000000,,2013-04-05 12:12:00,
2013-04-05 06:42:00,42.0,29.0,-100.00,WNW,288,4.0,7.0,60,-99.99,,,-99.99,0.000000,,2013-04-05 12:42:00,
2013-04-05 06:52:00,42.0,29.0,-100.00,WNW,288,4.0,7.0,60,-99.99,,,-99.99,0.000000,,2013-04-05 12:52:00,
2013-04-05 07:02:00,42.0,29.0,-100.00,WNW,288,4.0,7.0,60,-99.99,,,-99.99,0.000000,,2013-04-05 13:02:00,
2013-04-05 07:12:00,42.0,29.0,-100.00,WNW,288,4.0,7.0,60,-99.99,,,-99.99,0.000000,,2013-04-05 13:12:00,
2013-04-05 07:42:00,40.0,28.0,-100.00,West,276,5.0,9.0,63,-99.99,,,-99.99,3.000000,,2013-04-05 13:42:00,
2013-04-05 07:52:00,40.0,28.0,-100.00,West,276,5.0,9.0,63,-99.99,,,-99.99,3.000000,,2013-04-05 13:52:00,
2013-04-05 08:02:00,40.0,28.0,-100.00,West,276,5.0,9.0,63,-99.99,,,-99.99,3.000000,,2013-04-05 14:02:00,
2013-04-05 08:12:00,40.0,28.0,-100.00,West,276,5.0,9.0,63,-99.99,,,-99.99,3.000000,,2013-04-05 14:12:00,
2013-04-05 08:43:00,40.0,29.0,-100.00,WSW,240,4.0,10.0,64,-99.99,,,-99.99,38.000000,,2013-04-05 14:43:00,
2013-04-05 08:53:00,40.0,29.0,-100.00,WSW,240,4.0,10.0,64,-99.99,,,-99.99,38.000000,,2013-04-05 14:53:00,
2013-04-05 09:02:00,40.0,29.0,-100.00,WSW,240,4.0,10.0,64,-99.99,,,-99.99,38.000000,,2013-04-05 15:02:00,
2013-04-05 09:12:00,40.0,29.0,-100.00,WSW,240,4.0,10.0,64,-99.99,,,-99.99,38.000000,,2013-04-05 15:12:00,
2013-04-05 09:43:00,44.0,30.0,-100.00,SW,234,2.0,6.0,57,-99.99,,,-99.99,115.000000,,2013-04-05 15:43:00,
2013-04-05 09:53:00,44.0,30.0,-100.00,SW,234,2.0,6.0,57,-99.99,,,-99.99,115.000000,,2013-04-05 15:53:00,
2013-04-05 10:02:00,44.0,30.0,-100.00,SW,234,2.0,6.0,57,-99.99,,,-99.99,115.000000,,2013-04-05 16:02:00,
2013-04-05 10:13:00,44.0,30.0,-100.00,SW,234,2.0,6.0,57,-99.99,,,-99.99,115.000000,,2013-04-05 16:13:00,
2013-04-05 10:43:00,48.0,29.0,-100.00,NNW,327,1.0,3.0,47,-99.99,,,-99.99,186.000000,,2013-04-05 16:43:00,
2013-04-05 10:53:00,48.0,29.0,-100.00,NNW,327,1.0,3.0,47,-99.99,,,-99.99,186.000000,,2013-04-05 16:53:00,
2013-04-05 11:02:00,48.0,29.0,-100.00,NNW,327,1.0,3.0,47,-99.99,,,-99.99,186.000000,,2013-04-05 17:02:00,
2013-04-05 11:12:00,48.0,29.0,-100.00,NNW,327,1.0,3.0,47,-99.99,,,-99.99,186.000000,,2013-04-05 17:12:00,
2013-04-05 11:45:00,46.0,31.0,-100.00,SE,129,6.0,12.0,56,-99.99,,,-99.99,203.000000,,2013-04-05 17:45:00,
2013-04-05 11:52:00,46.0,31.0,-100.00,SE,129,6.0,12.0,56,-99.99,,,-99.99,203.000000,,2013-04-05 17:52:00,
2013-04-05 12:02:00,46.0,31.0,-100.00,SE,129,6.0,12.0,56,-99.99,,,-99.99,203.000000,,2013-04-05 18:02:00,
2013-04-05 12:12:00,46.0,31.0,-100.00,SE,129,6.0,12.0,56,-99.99,,,-99.99,203.000000,,2013-04-05 18:12:00,
2013-04-05 12:43:00,46.0,32.0,-100.00,ESE,122,5.0,11.0,59,0.00,,,-99.99,228.000000,,2013-04-05 18:43:00,
2013-04-05 12:52:00,46.0,32.0,-100.00,ESE,122,5.0,11.0,59,0.00,,,-99.99,228.000000,,2013-04-05 18:52:00,
2013-04-05 13:02:00,46.0,32.0,-100.00,ESE,122,5.0,11.0,59,0.00,,,-99.99,228.000000,,2013-04-05 19:02:00,
2013-04-05 13:12:00,46.0,32.0,-100.00,ESE,122,5.0,11.0,59,0.00,,,-99.99,228.000000,,2013-04-05 19:12:00,
2013-04-05 13:42:00,42.0,37.0,-100.00,NW,314,4.0,11.0,82,0.00,,,-99.99,147.000000,,2013-04-05 19:42:00,
2013-04-05 13:52:00,42.0,37.0,-100.00,NW,314,4.0,11.0,82,0.00,,,-99.99,147.000000,,2013-04-05 19:52:00,
2013-04-05 14:02:00,42.0,37.0,-100.00,NW,314,4.0,11.0,82,0.00,,,-99.99,147.000000,,2013-04-05 20:02:00,
2013-04-05 14:11:00,42.0,37.0,-100.00,NW,314,4.0,11.0,82,0.00,,,-99.99,147.000000,,2013-04-05 20:11:00,
2013-04-05 14:43:00,42.0,39.0,-100.00,WSW,246,4.0,9.0,88,0.00,,,-99.99,279.000000,,2013-04-05 20:43:00,
2013-04-05 14:52:00,42.0,39.0,-100.00,WSW,246,4.0,9.0,88,0.00,,,-99.99,279.000000,,2013-04-05 20:52:00,
2013-04-05 15:02:00,42.0,39.0,-100.00,WSW,246,4.0,9.0,88,0.00,,,-99.99,279.000000,,2013-04-05 21:02:00,
2013-04-05 15:44:00,46.0,27.0,-100.00,West,271,9.0,25.0,47,0.00,,,-99.99,846.000000,,2013-04-05 21:44:00,
2013-04-05 15:54:00,46.0,27.0,-100.00,West,271,9.0,25.0,47,0.00,,,-99.99,846.000000,,2013-04-05 21:54:00,
2013-04-05 16:02:00,46.0,27.0,-100.00,West,271,9.0,25.0,47,0.00,,,-99.99,846.000000,,2013-04-05 22:02:00,
2013-04-05 16:12:00,46.0,27.0,-100.00,West,271,9.0,25.0,47,0.00,,,-99.99,846.000000,,2013-04-05 22:12:00,
2013-04-05 16:44:00,42.0,29.0,-100.00,West,267,9.0,25.0,59,0.00,,,-99.99,374.000000,,2013-04-05 22:44:00,
2013-04-05 16:53:00,42.0,29.0,-100.00,West,267,9.0,25.0,59,0.00,,,-99.99,374.000000,,2013-04-05 22:53:00,
2013-04-05 17:02:00,42.0,29.0,-100.00,West,267,9.0,25.0,59,0.00,,,-99.99,374.000000,,2013-04-05 23:02:00,
2013-04-05 17:12:00,42.0,29.0,-100.00,West,267,9.0,25.0,59,0.00,,,-99.99,374.000000,,2013-04-05 23:12:00,
2013-04-05 17:42:00,42.0,32.0,-100.00,WSW,242,4.0,21.0,68,0.00,,,-99.99,206.000000,,2013-04-05 23:42:00,
2013-04-05 17:52:00,42.0,32.0,-100.00,WSW,242,4.0,21.0,68,0.00,,,-99.99,206.000000,,2013-04-05 23:52:00,
2013-04-05 18:02:00,42.0,32.0,-100.00,WSW,242,4.0,21.0,68,0.00,,,-99.99,206.000000,,2013-04-06 00:02:00,
2013-04-05 18:12:00,42.0,32.0,-100.00,WSW,242,4.0,21.0,68,0.00,,,-99.99,206.000000,,2013-04-06 00:12:00,
2013-04-05 18:43:00,48.0,22.0,-100.00,West,261,8.0,25.0,36,0.00,,,-99.99,461.000000,,2013-04-06 00:43:00,
2013-04-05 18:52:00,48.0,22.0,-100.00,West,261,8.0,25.0,36,0.00,,,-99.99,461.000000,,2013-04-06 00:52:00,
2013-04-05 19:12:00,48.0,22.0,-100.00,West,261,8.0,25.0,36,0.00,,,-99.99,461.000000,,2013-04-06 01:12:00,
2013-04-05 19:43:00,44.0,19.0,-100.00,West,263,5.0,21.0,37,0.00,,,-99.99,150.000000,,2013-04-06 01:43:00,
2013-04-05 19:53:00,44.0,19.0,-100.00,West,263,5.0,21.0,37,0.00,,,-99.99,150.000000,,2013-04-06 01:53:00,
2013-04-05 20:02:00,44.0,19.0,-100.00,West,263,5.0,21.0,37,0.00,,,-99.99,150.000000,,2013-04-06 02:02:00,
2013-04-05 20:12:00,44.0,19.0,-100.00,West,263,5.0,21.0,37,0.00,,,-99.99,150.000000,,2013-04-06 02:12:00,
2013-04-05 20:43:00,38.0,21.0,-100.00,NNW,337,2.0,12.0,49,0.00,,,-99.99,9.000000,,2013-04-06 02:43:00,
2013-04-05 20:52:00,38.0,21.0,-100.00,NNW,337,2.0,12.0,49,0.00,,,-99.99,9.000000,,2013-04-06 02:52:00,
2013-04-05 21:02:00,38.0,21.0,-100.00,NNW,337,2.0,12.0,49,0.00,,,-99.99,9.000000,,2013-04-06 03:02:00,
2013-04-05 21:12:00,38.0,21.0,-100.00,NNW,337,2.0,12.0,49,0.00,,,-99.99,9.000000,,2013-04-06 03:12:00,
2013-04-05 21:43:00,38.0,22.0,-100.00,WNW,285,3.0,6.0,51,0.00,,,-99.99,0.000000,,2013-04-06 03:43:00,
2013-04-05 21:53:00,38.0,22.0,-100.00,WNW,285,3.0,6.0,51,0.00,,,-99.99,0.000000,,2013-04-06 03:53:00,
2013-04-05 22:03:00,38.0,22.0,-100.00,WNW,285,3.0,6.0,51,0.00,,,-99.99,0.000000,,2013-04-06 04:03:00,
2013-04-05 22:13:00,38.0,22.0,-100.00,WNW,285,3.0,6.0,51,0.00,,,-99.99,0.000000,,2013-04-06 04:13:00,
2013-04-05 22:43:00,40.0,19.0,-100.00,WSW,256,6.0,14.0,43,0.00,,,-99.99,0.000000,,2013-04-06 04:43:00,
2013-04-05 22:53:00,40.0,19.0,-100.00,WSW,256,6.0,14.0,43,0.00,,,-99.99,0.000000,,2013-04-06 04:53:00,
2013-04-05 23:02:00,40.0,19.0,-100.00,WSW,256,6.0,14.0,43,0.00,,,-99.99,0.000000,,2013-04-06 05:02:00,
2013-04-05 23:12:00,40.0,19.0,-100.00,WSW,256,6.0,14.0,43,0.00,,,-99.99,0.000000,,2013-04-06 05:12:00,
2013-04-05 23:43:00,37.0,20.0,-100.00,NW,317,2.0,11.0,50,0.00,,,-99.99,0.000000,,2013-04-06 05:43:00,
2013-04-05 23:52:00,37.0,20.0,-100.00,NW,317,2.0,11.0,50,0.00,,,-99.99,0.000000,,2013-04-06 05:52:00,